Terminal Aerodrome Forecast
Issued by NWS Charleston, WV

Current Version | Previous Version | Graphics & Text | Print | Product List | Glossary On
Versions: 1 2 3 4 5 6 7 8 9 10 11 12 13 14 15 16 17 18 19 20
000
FTUS41 KRLX 271700
TAFBKW
TAF
KBKW 271720Z 2718/2818 35005KT P6SM FEW070
     FM280200 32004KT P6SM SCT050
     FM280900 VRB03KT 6SM BR BKN015
     FM281100 00000KT 5SM BR BKN010
     FM281300 VRB03KT 6SM BR BKN010
     FM281500 33004KT P6SM SCT015=

USA.gov is the U.S. government's official web portal to all federal, state and local government web resources and services.